createdAt,value
2022-07-28T00:00:35.759Z,2.33
2022-07-28T00:03:03.135Z,1.70
2022-07-28T00:05:30.265Z,3.60
2022-07-28T00:08:02.904Z,4.83
2022-07-28T00:10:29.949Z,4.83
2022-07-28T00:12:59.761Z,4.90
2022-07-28T00:15:27.581Z,5.20
2022-07-28T00:17:54.478Z,3.70
2022-07-28T00:20:21.600Z,3.03
2022-07-28T00:22:48.644Z,2.70
2022-07-28T00:25:15.653Z,2.40
2022-07-28T00:27:45.658Z,2.10
2022-07-28T00:32:40.388Z,2.90
2022-07-28T00:35:08.114Z,2.43
2022-07-28T00:37:36.012Z,2.40
2022-07-28T00:40:08.623Z,4.10
2022-07-28T00:42:35.499Z,2.80
2022-07-28T00:45:05.080Z,2.50
2022-07-28T00:47:33.632Z,2.40
2022-07-28T00:50:05.656Z,2.40
2022-07-28T00:52:33.943Z,2.20
2022-07-28T00:55:05.636Z,2.30
2022-07-28T00:57:32.838Z,2.60
2022-07-28T00:59:59.687Z,2.30
2022-07-28T01:02:26.823Z,2.40
2022-07-28T01:04:53.812Z,3.87
2022-07-28T01:07:48.532Z,3.47
2022-07-28T01:11:08.474Z,3.77
2022-07-28T01:13:46.657Z,3.93
2022-07-28T01:16:16.124Z,4.47
2022-07-28T01:19:03.798Z,2.93
2022-07-28T01:21:38.152Z,2.20
2022-07-28T01:24:29.437Z,3.10
2022-07-28T01:27:16.486Z,3.70
2022-07-28T01:30:17.147Z,3.20
2022-07-28T01:32:52.266Z,4.07
2022-07-28T01:35:27.439Z,3.30
2022-07-28T01:38:00.088Z,2.80
2022-07-28T01:40:41.671Z,4.13
2022-07-28T01:43:13.446Z,4.30
2022-07-28T01:45:45.459Z,3.93
2022-07-28T01:48:15.649Z,3.73
2022-07-28T01:50:48.921Z,2.97
2022-07-28T01:53:20.890Z,2.77
2022-07-28T01:55:49.523Z,2.63
2022-07-28T01:58:20.576Z,9.23
2022-07-28T02:00:52.536Z,9.80
2022-07-28T02:03:23.637Z,11.73
2022-07-28T02:05:53.075Z,6.60
2022-07-28T02:08:22.952Z,6.17
2022-07-28T02:11:13.316Z,2.63
2022-07-28T02:13:41.924Z,2.17
2022-07-28T02:16:14.804Z,2.40
2022-07-28T02:18:45.494Z,2.67
2022-07-28T02:21:13.907Z,2.37
2022-07-28T02:23:43.548Z,2.70
2022-07-28T02:26:12.449Z,2.37
2022-07-28T02:28:46.452Z,1.90
2022-07-28T02:31:21.118Z,2.23
2022-07-28T02:33:59.846Z,2.50
2022-07-28T02:36:37.751Z,2.27
2022-07-28T02:39:11.017Z,2.20
2022-07-28T02:41:42.467Z,2.03
2022-07-28T02:44:24.813Z,3.23
2022-07-28T02:46:58.706Z,2.50
2022-07-28T02:49:32.769Z,2.40
2022-07-28T02:52:04.662Z,2.30
2022-07-28T02:54:33.110Z,2.20
2022-07-28T02:57:03.536Z,2.40
2022-07-28T02:59:31.917Z,3.20
2022-07-28T03:01:59.680Z,2.10
2022-07-28T03:04:48.808Z,1.70
2022-07-28T03:07:16.303Z,2.80
2022-07-28T03:09:49.772Z,2.53
2022-07-28T03:12:16.705Z,2.40
2022-07-28T03:14:46.170Z,2.10
2022-07-28T03:17:13.846Z,3.37
2022-07-28T03:19:43.400Z,2.40
2022-07-28T03:22:10.726Z,2.10
2022-07-28T03:24:44.122Z,2.40
2022-07-28T03:27:36.584Z,2.60
2022-07-28T03:30:16.358Z,2.70
2022-07-28T03:32:49.766Z,2.23
2022-07-28T03:35:17.638Z,2.27
2022-07-28T03:38:00.379Z,2.23
2022-07-28T03:40:32.111Z,2.00
2022-07-28T03:43:06.388Z,2.80
2022-07-28T03:45:36.304Z,2.83
2022-07-28T03:48:12.751Z,2.40
2022-07-28T03:50:39.755Z,2.70
2022-07-28T03:53:14.747Z,2.60
2022-07-28T03:55:41.592Z,3.13
2022-07-28T03:58:10.702Z,3.00
2022-07-28T04:00:37.667Z,3.87
2022-07-28T04:03:04.572Z,6.47
2022-07-28T04:05:54.688Z,3.73
2022-07-28T04:08:24.519Z,2.83
2022-07-28T04:10:53.785Z,4.10
2022-07-28T04:13:21.068Z,2.63
2022-07-28T04:15:47.937Z,2.83
2022-07-28T04:18:14.783Z,2.70
2022-07-28T04:20:41.688Z,2.50
2022-07-28T04:23:08.709Z,4.60
2022-07-28T04:25:35.552Z,5.20
2022-07-28T04:28:05.497Z,3.60
2022-07-28T04:30:35.320Z,2.53
2022-07-28T04:33:10.993Z,2.30
2022-07-28T04:35:37.979Z,3.37
2022-07-28T04:38:07.759Z,2.60
2022-07-28T04:40:34.891Z,2.27
2022-07-28T04:43:03.624Z,2.93
2022-07-28T04:45:33.179Z,2.40
2022-07-28T04:48:02.686Z,2.83
2022-07-28T04:50:29.629Z,2.63
2022-07-28T04:52:56.497Z,3.10
2022-07-28T04:55:25.899Z,2.70
2022-07-28T04:57:52.802Z,2.47
2022-07-28T05:00:20.107Z,2.37
2022-07-28T05:02:51.291Z,2.70
2022-07-28T05:05:18.334Z,3.00
2022-07-28T05:07:47.520Z,3.13
2022-07-28T05:10:14.390Z,2.77
2022-07-28T05:12:41.627Z,2.40
2022-07-28T05:15:09.728Z,2.40
2022-07-28T05:17:40.016Z,3.20
2022-07-28T05:20:08.556Z,2.70
2022-07-28T05:22:51.034Z,3.00
2022-07-28T05:25:23.022Z,2.77
2022-07-28T05:27:55.772Z,2.67
2022-07-28T05:30:23.514Z,2.50
2022-07-28T05:32:51.111Z,2.60
2022-07-28T05:35:18.127Z,2.83
2022-07-28T05:37:49.581Z,2.83
2022-07-28T05:40:18.389Z,2.63
2022-07-28T05:42:48.063Z,2.80
2022-07-28T05:45:17.995Z,2.90
2022-07-28T05:47:52.967Z,3.47
2022-07-28T05:50:22.268Z,2.60
2022-07-28T05:52:51.278Z,2.80
2022-07-28T05:55:21.323Z,2.63
2022-07-28T05:57:50.949Z,2.60
2022-07-28T06:00:21.760Z,2.93
2022-07-28T06:02:50.453Z,2.23
2022-07-28T06:05:22.945Z,3.20
2022-07-28T06:07:53.963Z,3.10
2022-07-28T06:10:26.761Z,2.63
2022-07-28T06:12:56.111Z,2.57
2022-07-28T06:15:26.264Z,3.40
2022-07-28T06:17:56.926Z,2.50
2022-07-28T06:20:28.996Z,2.20
2022-07-28T06:22:56.843Z,2.50
2022-07-28T06:25:32.758Z,2.23
2022-07-28T06:28:03.758Z,2.87
2022-07-28T06:30:34.912Z,2.80
2022-07-28T06:33:01.910Z,3.03
2022-07-28T06:35:28.832Z,2.47
2022-07-28T06:37:55.644Z,2.70
2022-07-28T06:40:31.569Z,2.17
2022-07-28T06:42:58.528Z,1.77
2022-07-28T06:45:25.490Z,1.80
2022-07-28T06:47:55.621Z,1.87
2022-07-28T06:50:25.055Z,2.97
2022-07-28T06:53:02.002Z,2.03
2022-07-28T06:55:35.244Z,1.30
2022-07-28T06:58:06.326Z,2.10
2022-07-28T07:00:33.415Z,2.30
2022-07-28T07:03:03.055Z,1.83
2022-07-28T07:05:34.672Z,1.50
2022-07-28T07:08:01.572Z,2.07
2022-07-28T07:10:28.476Z,1.40
2022-07-28T07:12:55.450Z,1.63
2022-07-28T07:15:22.387Z,1.50
2022-07-28T07:17:49.277Z,2.30
2022-07-28T07:20:19.618Z,1.70
2022-07-28T07:22:47.598Z,1.30
2022-07-28T07:25:21.803Z,1.33
2022-07-28T07:27:48.755Z,1.47
2022-07-28T07:30:16.909Z,1.27
2022-07-28T07:32:46.161Z,1.50
2022-07-28T07:35:13.144Z,1.43
2022-07-28T07:37:42.757Z,2.00
2022-07-28T07:40:10.170Z,2.90
2022-07-28T07:42:37.201Z,1.50
2022-07-28T07:45:04.682Z,1.60
2022-07-28T07:47:31.558Z,1.40
2022-07-28T07:49:58.506Z,1.87
2022-07-28T07:52:25.458Z,1.50
2022-07-28T07:54:52.355Z,2.30
2022-07-28T07:57:19.342Z,1.40
2022-07-28T07:59:46.237Z,1.50
2022-07-28T08:02:17.622Z,1.20
2022-07-28T08:04:44.542Z,1.43
2022-07-28T08:07:11.690Z,1.30
2022-07-28T08:09:38.913Z,1.30
2022-07-28T08:12:06.324Z,1.23
2022-07-28T08:14:35.395Z,1.53
2022-07-28T08:17:02.278Z,1.57
2022-07-28T08:19:29.165Z,2.03
2022-07-28T08:21:56.030Z,1.30
2022-07-28T08:24:33.546Z,1.30
2022-07-28T08:27:04.113Z,1.97
2022-07-28T08:29:31.590Z,1.50
2022-07-28T08:32:04.044Z,1.20
2022-07-28T08:34:36.950Z,1.33
2022-07-28T08:37:11.026Z,1.50
2022-07-28T08:39:37.893Z,1.50
2022-07-28T08:42:19.034Z,1.70
2022-07-28T08:44:56.790Z,1.40
2022-07-28T08:47:45.651Z,1.30
2022-07-28T08:50:19.560Z,1.43
2022-07-28T08:52:53.534Z,1.10
2022-07-28T08:55:32.137Z,1.50
2022-07-28T08:58:00.703Z,1.27
2022-07-28T09:00:28.347Z,1.10
2022-07-28T09:02:55.947Z,1.40
2022-07-28T09:05:24.506Z,1.63
2022-07-28T09:07:55.199Z,1.20
2022-07-28T09:10:28.739Z,1.27
2022-07-28T09:13:00.190Z,1.80
2022-07-28T09:15:29.474Z,1.23
2022-07-28T09:17:58.860Z,1.40
2022-07-28T09:20:28.499Z,1.67
2022-07-28T09:23:03.812Z,1.50
2022-07-28T09:25:31.672Z,1.43
2022-07-28T09:28:13.038Z,1.10
2022-07-28T09:30:53.936Z,1.57
2022-07-28T09:33:42.962Z,1.43
2022-07-28T09:36:16.072Z,1.70
2022-07-28T09:38:43.750Z,1.03
2022-07-28T09:41:11.948Z,1.50
2022-07-28T09:43:44.934Z,2.13
2022-07-28T09:46:18.303Z,1.70
2022-07-28T09:48:59.696Z,1.30
2022-07-28T09:51:31.962Z,1.33
2022-07-28T09:54:18.894Z,1.63
2022-07-28T09:56:48.684Z,1.60
2022-07-28T09:59:17.023Z,1.50
2022-07-28T10:02:01.730Z,1.37
2022-07-28T10:04:37.358Z,1.13
2022-07-28T10:07:07.201Z,1.63
2022-07-28T10:09:40.809Z,2.00
2022-07-28T10:12:30.659Z,1.73
2022-07-28T10:15:31.586Z,1.50
2022-07-28T10:17:58.569Z,1.77
2022-07-28T10:20:27.037Z,1.60
2022-07-28T10:23:06.221Z,1.47
2022-07-28T10:25:35.016Z,1.50
2022-07-28T10:28:06.450Z,1.83
2022-07-28T10:30:41.183Z,1.87
2022-07-28T10:33:15.815Z,1.63
2022-07-28T10:35:55.271Z,1.93
2022-07-28T10:38:34.346Z,1.70
2022-07-28T10:41:04.114Z,1.37
2022-07-28T10:43:34.082Z,0.90
2022-07-28T10:46:06.253Z,1.40
2022-07-28T10:48:38.712Z,1.93
2022-07-28T10:51:06.250Z,1.67
2022-07-28T10:54:06.879Z,1.90
2022-07-28T10:56:48.734Z,1.57
2022-07-28T10:59:46.470Z,1.50
2022-07-28T11:02:51.865Z,1.20
2022-07-28T11:05:40.559Z,1.50
2022-07-28T11:08:27.878Z,1.63
2022-07-28T11:11:07.428Z,1.90
2022-07-28T11:13:40.998Z,1.23
2022-07-28T11:16:17.399Z,1.10
2022-07-28T11:19:36.506Z,1.50
2022-07-28T11:22:15.717Z,1.30
2022-07-28T11:25:19.879Z,2.23
2022-07-28T11:27:54.463Z,1.90
2022-07-28T11:30:36.505Z,1.67
2022-07-28T11:33:07.086Z,1.47
2022-07-28T11:35:39.731Z,1.40
2022-07-28T11:38:10.529Z,1.47
2022-07-28T11:40:41.660Z,1.60
2022-07-28T11:43:27.915Z,1.50
2022-07-28T11:46:11.283Z,1.50
2022-07-28T11:48:47.029Z,1.60
2022-07-28T11:51:17.038Z,1.70
2022-07-28T11:53:52.508Z,1.50
2022-07-28T11:56:29.245Z,1.47
2022-07-28T11:59:04.116Z,1.50
2022-07-28T12:01:32.466Z,1.10
2022-07-28T12:04:16.047Z,1.03
2022-07-28T12:06:51.229Z,1.20
2022-07-28T12:09:25.109Z,1.33
2022-07-28T12:11:55.819Z,1.73
2022-07-28T12:14:38.638Z,1.40
2022-07-28T12:17:06.399Z,1.40
2022-07-28T12:19:33.494Z,1.67
2022-07-28T12:22:00.556Z,1.40
2022-07-28T12:24:44.762Z,1.60
2022-07-28T12:27:14.840Z,1.50
2022-07-28T12:29:42.461Z,1.70
2022-07-28T12:32:12.124Z,2.20
2022-07-28T12:34:43.611Z,1.80
2022-07-28T12:37:10.856Z,1.30
2022-07-28T12:39:44.259Z,1.20
2022-07-28T12:42:15.618Z,1.33
2022-07-28T12:44:46.956Z,1.70
2022-07-28T12:47:17.633Z,1.57
2022-07-28T12:49:56.320Z,1.50
2022-07-28T12:52:25.549Z,1.77
2022-07-28T12:54:56.177Z,1.43
2022-07-28T12:57:51.662Z,1.40
2022-07-28T13:00:23.624Z,1.43
2022-07-28T13:02:55.245Z,1.60
2022-07-28T13:05:57.885Z,1.43
2022-07-28T13:08:27.598Z,1.40
2022-07-28T13:10:58.790Z,1.23
2022-07-28T13:13:27.236Z,1.10
2022-07-28T13:16:19.826Z,1.60
2022-07-28T13:18:57.289Z,1.77
2022-07-28T13:21:57.716Z,1.20
2022-07-28T13:24:31.357Z,1.60
2022-07-28T13:26:59.680Z,1.80
2022-07-28T13:29:26.569Z,1.47
2022-07-28T13:31:55.985Z,1.37
2022-07-28T13:34:23.471Z,1.43
2022-07-28T13:36:50.432Z,1.30
2022-07-28T13:39:22.926Z,1.63
2022-07-28T13:41:57.192Z,1.73
2022-07-28T13:44:30.344Z,2.40
2022-07-28T13:46:59.614Z,1.50
2022-07-28T13:49:31.768Z,1.47
2022-07-28T13:52:00.592Z,1.60
2022-07-28T13:54:28.165Z,1.20
2022-07-28T13:56:55.088Z,1.70
2022-07-28T13:59:26.386Z,1.53
2022-07-28T14:01:56.256Z,1.73
2022-07-28T14:04:27.815Z,1.43
2022-07-28T14:06:54.768Z,1.60
2022-07-28T14:09:28.745Z,1.30
2022-07-28T14:11:55.689Z,1.83
2022-07-28T14:14:24.834Z,1.90
2022-07-28T14:16:54.570Z,1.67
2022-07-28T14:19:39.115Z,2.07
2022-07-28T14:22:13.666Z,1.37
2022-07-28T14:24:43.552Z,1.87
2022-07-28T14:27:11.381Z,1.40
2022-07-28T14:29:39.594Z,1.40
2022-07-28T14:32:07.075Z,1.20
2022-07-28T14:34:34.626Z,1.67
2022-07-28T14:37:03.419Z,1.50
2022-07-28T14:39:35.402Z,1.30
2022-07-28T14:42:06.947Z,1.50
2022-07-28T14:44:36.250Z,1.20
2022-07-28T14:47:07.381Z,2.07
2022-07-28T14:49:37.575Z,1.70
2022-07-28T14:52:27.387Z,1.33
2022-07-28T14:54:57.711Z,1.37
2022-07-28T14:57:48.426Z,1.30
2022-07-28T15:00:15.158Z,1.50
2022-07-28T15:02:45.746Z,1.90
2022-07-28T15:05:19.920Z,1.23
2022-07-28T15:07:49.206Z,1.23
2022-07-28T15:10:20.884Z,1.27
2022-07-28T15:12:50.019Z,1.50
2022-07-28T15:15:17.028Z,1.50
2022-07-28T15:17:48.767Z,1.47
2022-07-28T15:20:15.706Z,1.87
2022-07-28T15:22:42.593Z,1.57
2022-07-28T15:25:12.067Z,1.20
2022-07-28T15:27:45.357Z,1.33
2022-07-28T15:30:13.129Z,1.40
2022-07-28T15:32:56.101Z,1.60
2022-07-28T15:35:26.185Z,1.67
2022-07-28T15:37:59.000Z,1.30
2022-07-28T15:40:26.460Z,1.43
2022-07-28T15:42:57.897Z,1.40
2022-07-28T15:45:28.322Z,1.30
2022-07-28T15:47:57.455Z,1.20
2022-07-28T15:50:24.429Z,1.60
2022-07-28T15:52:53.514Z,1.30
2022-07-28T15:55:23.395Z,1.50
2022-07-28T15:57:55.248Z,1.40
2022-07-28T16:00:22.329Z,1.20
2022-07-28T16:02:51.440Z,3.50
2022-07-28T16:05:18.388Z,1.40
2022-07-28T16:07:45.340Z,1.50
2022-07-28T16:10:12.250Z,1.40
2022-07-28T16:12:39.146Z,2.20
2022-07-28T16:15:06.710Z,1.80
2022-07-28T16:17:37.179Z,1.60
2022-07-28T16:20:05.918Z,1.60
2022-07-28T16:22:38.329Z,1.73
2022-07-28T16:25:15.946Z,1.30
2022-07-28T16:27:48.244Z,1.30
2022-07-28T16:30:18.663Z,1.50
2022-07-28T16:32:47.756Z,1.20
2022-07-28T16:35:15.195Z,1.30
2022-07-28T16:37:42.348Z,1.20
2022-07-28T16:40:11.271Z,1.70
2022-07-28T16:42:38.244Z,2.93
2022-07-28T16:45:08.230Z,1.33
2022-07-28T16:47:38.357Z,1.23
2022-07-28T16:50:05.681Z,1.33
2022-07-28T16:52:37.569Z,1.80
2022-07-28T16:55:07.895Z,1.40
2022-07-28T16:57:37.123Z,1.90
2022-07-28T17:00:06.058Z,1.50
2022-07-28T17:02:35.950Z,1.43
2022-07-28T17:05:03.168Z,1.90
2022-07-28T17:07:35.957Z,1.20
2022-07-28T17:10:05.503Z,1.23
2022-07-28T17:12:32.357Z,1.50
2022-07-28T17:15:06.806Z,1.50
2022-07-28T17:17:49.130Z,1.80
2022-07-28T17:20:19.144Z,1.30
2022-07-28T17:22:46.076Z,1.53
2022-07-28T17:25:43.011Z,1.90
2022-07-28T17:28:04.193Z,1.70
2022-07-28T17:30:32.894Z,1.93
2022-07-28T17:33:06.094Z,1.80
2022-07-28T17:35:35.943Z,1.60
2022-07-28T17:38:06.892Z,1.40
2022-07-28T17:40:33.904Z,1.97
2022-07-28T17:43:05.948Z,1.90
2022-07-28T17:45:35.275Z,1.73
2022-07-28T17:48:02.130Z,2.20
2022-07-28T17:50:33.679Z,2.20
2022-07-28T17:53:05.862Z,1.93
2022-07-28T17:56:00.389Z,1.50
2022-07-28T17:58:31.062Z,1.67
2022-07-28T18:01:09.804Z,1.33
2022-07-28T18:03:58.163Z,2.00
2022-07-28T18:06:34.477Z,1.50
2022-07-28T18:09:11.591Z,3.20
2022-07-28T18:11:56.670Z,1.40
2022-07-28T18:14:27.550Z,1.60
2022-07-28T18:16:57.707Z,1.97
2022-07-28T18:19:27.288Z,1.60
2022-07-28T18:21:56.649Z,1.87
2022-07-28T18:24:23.760Z,1.67
2022-07-28T18:26:54.466Z,1.50
2022-07-28T18:29:24.798Z,2.00
2022-07-28T18:31:52.685Z,1.87
2022-07-28T18:34:24.636Z,1.83
2022-07-28T18:36:54.731Z,2.20
2022-07-28T18:39:21.654Z,3.07
2022-07-28T18:41:54.284Z,2.30
2022-07-28T18:44:21.570Z,2.23
2022-07-28T18:46:49.109Z,2.50
2022-07-28T18:49:19.977Z,2.30
2022-07-28T18:51:47.057Z,2.03
2022-07-28T18:54:20.036Z,1.70
2022-07-28T18:56:54.182Z,1.90
2022-07-28T18:59:21.982Z,1.93
2022-07-28T19:01:53.554Z,2.40
2022-07-28T19:04:20.495Z,2.30
2022-07-28T19:06:47.475Z,1.77
2022-07-28T19:09:19.024Z,2.10
2022-07-28T19:11:46.716Z,1.70
2022-07-28T19:14:20.151Z,1.80
2022-07-28T19:16:49.441Z,2.03
2022-07-28T19:19:21.382Z,2.07
2022-07-28T19:21:50.760Z,1.53
2022-07-28T19:24:27.771Z,1.67
2022-07-28T19:26:54.780Z,1.93
2022-07-28T19:29:23.017Z,1.83
2022-07-28T19:31:49.932Z,2.20
2022-07-28T19:34:19.760Z,2.20
2022-07-28T19:36:52.945Z,1.60
2022-07-28T19:39:19.888Z,1.90
2022-07-28T19:41:47.409Z,1.93
2022-07-28T19:44:15.483Z,2.00
2022-07-28T19:46:42.849Z,2.43
2022-07-28T19:49:11.748Z,2.03
2022-07-28T19:51:39.066Z,1.83
2022-07-28T19:54:06.242Z,2.30
2022-07-28T19:56:33.617Z,2.73
2022-07-28T19:59:01.236Z,1.90
2022-07-28T20:01:29.376Z,2.17
2022-07-28T20:04:15.267Z,1.73
2022-07-28T20:06:42.468Z,2.60
2022-07-28T20:09:09.347Z,2.30
2022-07-28T20:11:36.978Z,3.00
2022-07-28T20:14:05.954Z,2.00
2022-07-28T20:16:32.891Z,1.67
2022-07-28T20:18:59.812Z,1.90
2022-07-28T20:21:26.711Z,1.93
2022-07-28T20:24:00.099Z,2.10
2022-07-28T20:26:27.270Z,1.80
2022-07-28T20:28:58.546Z,1.80
2022-07-28T20:31:25.572Z,1.83
2022-07-28T20:33:55.802Z,2.00
2022-07-28T20:36:26.365Z,2.10
2022-07-28T20:38:58.554Z,1.63
2022-07-28T20:41:25.627Z,2.07
2022-07-28T20:44:18.386Z,2.07
2022-07-28T20:46:42.399Z,2.33
2022-07-28T20:49:12.489Z,1.93
2022-07-28T20:51:39.487Z,2.10
2022-07-28T20:54:19.066Z,1.50
2022-07-28T20:56:46.060Z,2.20
2022-07-28T20:59:13.777Z,2.17
2022-07-28T21:01:41.235Z,2.17
2022-07-28T21:04:11.905Z,2.60
2022-07-28T21:06:51.064Z,2.10
2022-07-28T21:09:20.542Z,2.00
2022-07-28T21:11:47.423Z,2.77
2022-07-28T21:14:14.555Z,2.47
2022-07-28T21:16:41.841Z,1.80
2022-07-28T21:19:11.961Z,2.03
2022-07-28T21:21:40.894Z,2.07
2022-07-28T21:24:10.839Z,2.57
2022-07-28T21:26:37.792Z,1.90
2022-07-28T21:32:03.580Z,2.50
2022-07-28T21:34:36.039Z,1.70
2022-07-28T21:37:06.923Z,1.73
2022-07-28T21:39:36.951Z,1.77
2022-07-28T21:42:07.800Z,2.40
2022-07-28T21:44:40.262Z,1.90
2022-07-28T21:47:07.159Z,1.80
2022-07-28T21:49:34.038Z,1.70
2022-07-28T21:52:00.975Z,2.40
2022-07-28T21:54:28.044Z,2.40
2022-07-28T21:57:00.641Z,2.40
2022-07-28T21:59:29.825Z,2.43
2022-07-28T22:01:56.794Z,2.30
2022-07-28T22:04:23.932Z,1.90
2022-07-28T22:06:55.215Z,2.43
2022-07-28T22:09:22.412Z,1.67
2022-07-28T22:11:51.830Z,2.07
2022-07-28T22:14:19.184Z,2.10
2022-07-28T22:16:46.521Z,1.93
2022-07-28T22:19:13.517Z,1.73
2022-07-28T22:21:40.431Z,1.90
2022-07-28T22:24:07.818Z,2.30
2022-07-28T22:26:37.676Z,1.40
2022-07-28T22:29:04.568Z,2.20
2022-07-28T22:31:33.723Z,2.03
2022-07-28T22:34:00.609Z,2.17
2022-07-28T22:36:27.731Z,2.40
2022-07-28T22:38:55.501Z,1.90
2022-07-28T22:41:22.581Z,2.10
2022-07-28T22:43:49.626Z,1.80
2022-07-28T22:46:16.998Z,1.60
2022-07-28T22:48:46.543Z,2.30
2022-07-28T22:51:15.284Z,1.97
2022-07-28T22:53:44.957Z,1.70
2022-07-28T22:56:11.904Z,2.07
2022-07-28T22:58:40.127Z,1.80
2022-07-28T23:01:09.667Z,1.47
2022-07-28T23:03:37.553Z,2.00
2022-07-28T23:06:10.396Z,1.93
2022-07-28T23:08:37.319Z,2.07
2022-07-28T23:11:05.662Z,2.13
2022-07-28T23:13:32.751Z,2.30
2022-07-28T23:16:01.943Z,2.43
2022-07-28T23:18:28.991Z,1.33
2022-07-28T23:20:55.893Z,1.90
2022-07-28T23:23:22.829Z,2.00
2022-07-28T23:25:51.891Z,1.90
2022-07-28T23:28:18.774Z,1.87
2022-07-28T23:30:47.307Z,2.30
2022-07-28T23:33:54.334Z,2.40
2022-07-28T23:36:14.791Z,2.00
2022-07-28T23:38:58.194Z,2.10
2022-07-28T23:41:26.609Z,1.93
2022-07-28T23:43:56.301Z,2.23
2022-07-28T23:46:23.710Z,1.77
2022-07-28T23:48:51.013Z,1.97
2022-07-28T23:51:18.518Z,1.97
2022-07-28T23:53:48.567Z,2.47
2022-07-28T23:56:17.649Z,2.07
2022-07-28T23:58:47.547Z,2.60
